Time;durP1;ratioP1;P1;durP2;ratioP2;P2;SDS_P1;SDS_P2;PMS_P1;PMS_P2;Temp;Humidity;BMP_temperature;BMP_pressure;BME280_temperature;BME280_humidity;BME280_pressure;Samples;Min_cycle;Max_cycle;Signal;HPM_P1;HPM_P2
2023/12/08 00:01:15;;;;;;;4.50;3.35;;;;;;;;;;5114507;27;20051;-61
2023/12/08 00:03:43;;;;;;;4.47;3.55;;;;;;;;;;5124221;27;20063;-61
2023/12/08 00:06:10;;;;;;;4.72;3.47;;;;;;;;;;5121052;27;20059;-61
2023/12/08 00:08:37;;;;;;;4.78;3.38;;;;;;;;;;5120653;27;20074;-61
2023/12/08 00:11:04;;;;;;;4.65;3.13;;;;;;;;;;5126155;27;20051;-61
2023/12/08 00:13:31;;;;;;;4.28;2.92;;;;;;;;;;5132855;27;20058;-61
2023/12/08 00:15:58;;;;;;;4.93;3.22;;;;;;;;;;5133583;27;20051;-61
2023/12/08 00:18:25;;;;;;;4.20;3.30;;;;;;;;;;5123289;27;20043;-61
2023/12/08 00:20:54;;;;;;;4.18;2.72;;;;;;;;;;5117483;27;20052;-61
2023/12/08 00:23:21;;;;;;;4.63;3.28;;;;;;;;;;5127087;27;20047;-61
2023/12/08 00:25:47;;;;;;;5.25;3.35;;;;;;;;;;5112401;27;20075;-61
2023/12/08 00:28:14;;;;;;;4.50;3.10;;;;;;;;;;5114155;28;20381;-60
2023/12/08 00:30:41;;;;;;;4.38;3.30;;;;;;;;;;5117256;27;20047;-61
2023/12/08 00:33:08;;;;;;;4.25;3.25;;;;;;;;;;5123889;27;20392;-61
2023/12/08 00:35:35;;;;;;;4.00;3.17;;;;;;;;;;5115190;27;20058;-61
2023/12/08 00:38:03;;;;;;;4.00;2.80;;;;;;;;;;5132708;27;20051;-61
2023/12/08 00:40:30;;;;;;;4.72;3.15;;;;;;;;;;5114395;27;20055;-61
2023/12/08 00:42:57;;;;;;;4.53;3.15;;;;;;;;;;5113580;28;20047;-61
2023/12/08 00:45:24;;;;;;;4.45;3.33;;;;;;;;;;5113107;27;20169;-61
2023/12/08 00:47:51;;;;;;;5.47;3.35;;;;;;;;;;5115712;27;20058;-62
2023/12/08 00:50:18;;;;;;;4.15;3.10;;;;;;;;;;5128967;27;20482;-61
2023/12/08 00:52:45;;;;;;;3.47;2.75;;;;;;;;;;5128164;27;20054;-60
2023/12/08 00:55:13;;;;;;;4.95;3.13;;;;;;;;;;5126035;27;20048;-62
2023/12/08 00:57:40;;;;;;;4.60;3.08;;;;;;;;;;5113243;28;20502;-62
2023/12/08 01:00:07;;;;;;;4.95;3.17;;;;;;;;;;5118393;27;20051;-62
2023/12/08 01:02:34;;;;;;;5.13;3.05;;;;;;;;;;5126497;27;20044;-62
2023/12/08 01:05:01;;;;;;;4.95;3.50;;;;;;;;;;5120609;27;20062;-62
2023/12/08 01:07:28;;;;;;;5.28;3.17;;;;;;;;;;5112809;27;20051;-61
2023/12/08 01:09:55;;;;;;;5.93;3.35;;;;;;;;;;5130952;27;20063;-60
2023/12/08 01:12:23;;;;;;;4.90;3.70;;;;;;;;;;5118530;27;20062;-61
2023/12/08 01:14:50;;;;;;;4.57;3.72;;;;;;;;;;5133392;27;20505;-62
2023/12/08 01:17:17;;;;;;;4.10;3.08;;;;;;;;;;5111892;27;20472;-61
2023/12/08 01:19:44;;;;;;;4.70;3.50;;;;;;;;;;5119160;27;20050;-62
2023/12/08 01:22:10;;;;;;;4.10;3.45;;;;;;;;;;5118607;27;20062;-62
2023/12/08 01:24:38;;;;;;;6.10;3.90;;;;;;;;;;5112475;28;20047;-62
2023/12/08 01:27:04;;;;;;;4.78;3.60;;;;;;;;;;5124505;27;20491;-62
2023/12/08 01:29:33;;;;;;;5.68;4.10;;;;;;;;;;5132294;27;20051;-62
2023/12/08 01:31:59;;;;;;;5.45;4.13;;;;;;;;;;5120229;27;20056;-62
2023/12/08 01:34:26;;;;;;;5.05;3.70;;;;;;;;;;5112082;27;20071;-62
2023/12/08 01:36:53;;;;;;;5.60;3.97;;;;;;;;;;5117117;27;20396;-61
2023/12/08 01:39:20;;;;;;;5.03;3.80;;;;;;;;;;5131552;27;20055;-61
2023/12/08 01:41:50;;;;;;;5.85;4.10;;;;;;;;;;5112209;27;20055;-62
2023/12/08 01:44:16;;;;;;;;;;;;;;;;;;5127733;27;20062;-61
2023/12/08 01:46:45;;;;;;;5.18;3.80;;;;;;;;;;5132917;27;20356;-61
2023/12/08 01:49:12;;;;;;;4.15;3.55;;;;;;;;;;5121058;27;20047;-61
2023/12/08 01:51:39;;;;;;;5.15;4.10;;;;;;;;;;5114840;27;20055;-62
2023/12/08 01:54:06;;;;;;;5.70;4.18;;;;;;;;;;5115937;27;20074;-61
2023/12/08 01:56:33;;;;;;;6.10;3.95;;;;;;;;;;5112516;28;20051;-62
2023/12/08 01:59:00;;;;;;;6.28;4.22;;;;;;;;;;5125555;27;20058;-61
2023/12/08 02:01:27;;;;;;;5.25;3.90;;;;;;;;;;5131132;27;20058;-61
2023/12/08 02:03:56;;;;;;;6.45;4.50;;;;;;;;;;5119317;27;20039;-61
2023/12/08 02:06:23;;;;;;;6.10;4.50;;;;;;;;;;5127976;27;20051;-60
2023/12/08 02:08:50;;;;;;;6.60;4.32;;;;;;;;;;5118218;27;20044;-61
2023/12/08 02:11:17;;;;;;;5.63;4.35;;;;;;;;;;5111670;27;20062;-60
2023/12/08 02:13:44;;;;;;;7.38;4.95;;;;;;;;;;5124497;27;20120;-62
2023/12/08 02:16:14;;;;;;;6.28;4.70;;;;;;;;;;5131738;27;20062;-61
2023/12/08 02:18:40;;;;;;;;;;;;;;;;;;5117185;27;20420;-62
2023/12/08 02:21:09;;;;;;;6.18;4.78;;;;;;;;;;5112712;27;19920;-60
2023/12/08 02:23:36;;;;;;;5.43;4.45;;;;;;;;;;5132469;28;20058;-61
2023/12/08 02:26:05;;;;;;;7.63;5.07;;;;;;;;;;5130908;27;20480;-60
2023/12/08 02:28:31;;;;;;;6.55;4.95;;;;;;;;;;5131183;27;20055;-60
2023/12/08 02:31:00;;;;;;;6.45;4.93;;;;;;;;;;5126037;27;20480;-65
2023/12/08 02:33:29;;;;;;;7.57;5.07;;;;;;;;;;5117674;27;20055;-60
2023/12/08 02:35:56;;;;;;;7.47;5.37;;;;;;;;;;5112489;27;20048;-60
2023/12/08 02:38:24;;;;;;;6.00;4.53;;;;;;;;;;5127512;27;20503;-60
2023/12/08 02:40:51;;;;;;;7.63;5.00;;;;;;;;;;5115336;27;20485;-63
2023/12/08 02:43:19;;;;;;;7.47;5.20;;;;;;;;;;5110682;27;20051;-61
2023/12/08 02:45:46;;;;;;;7.70;5.85;;;;;;;;;;5126793;27;20055;-61
2023/12/08 02:48:13;;;;;;;6.88;4.97;;;;;;;;;;5133199;27;20051;-61
2023/12/08 02:50:40;;;;;;;6.28;5.03;;;;;;;;;;5120475;27;20063;-61
2023/12/08 02:53:07;;;;;;;7.03;5.30;;;;;;;;;;5118427;27;20054;-61
2023/12/08 02:55:33;;;;;;;7.28;5.30;;;;;;;;;;5118609;27;20048;-61
2023/12/08 02:58:00;;;;;;;6.70;5.43;;;;;;;;;;5129716;27;20381;-62
2023/12/08 03:00:28;;;;;;;7.00;5.30;;;;;;;;;;5114985;27;20457;-62
2023/12/08 03:02:55;;;;;;;6.50;5.38;;;;;;;;;;5128882;27;20051;-62
2023/12/08 03:05:22;;;;;;;7.00;5.05;;;;;;;;;;5116270;27;20054;-62
2023/12/08 03:07:49;;;;;;;6.82;4.97;;;;;;;;;;5118961;27;20047;-61
2023/12/08 03:10:16;;;;;;;7.50;5.28;;;;;;;;;;5130224;27;20055;-61
2023/12/08 03:12:42;;;;;;;7.65;5.70;;;;;;;;;;5133369;27;20052;-61
2023/12/08 03:15:09;;;;;;;6.95;5.22;;;;;;;;;;5120764;27;20043;-61
2023/12/08 03:17:37;;;;;;;7.20;4.97;;;;;;;;;;5115958;27;20503;-62
2023/12/08 03:20:05;;;;;;;6.88;5.28;;;;;;;;;;5119475;27;20047;-62
2023/12/08 03:22:31;;;;;;;7.65;5.60;;;;;;;;;;5134575;27;20055;-60
2023/12/08 03:24:58;;;;;;;6.30;4.97;;;;;;;;;;5131058;27;20039;-62
2023/12/08 03:27:25;;;;;;;7.13;5.13;;;;;;;;;;5134013;27;20399;-62
2023/12/08 03:29:52;;;;;;;7.38;5.47;;;;;;;;;;5127634;27;20047;-61
2023/12/08 03:32:19;;;;;;;6.68;5.53;;;;;;;;;;5114511;27;20055;-62
2023/12/08 03:34:47;;;;;;;6.85;5.63;;;;;;;;;;5114055;27;20047;-61
2023/12/08 03:37:13;;;;;;;6.50;4.97;;;;;;;;;;5114234;27;20059;-62
2023/12/08 03:39:40;;;;;;;6.97;5.38;;;;;;;;;;5118062;27;20058;-62
2023/12/08 03:42:07;;;;;;;8.45;5.82;;;;;;;;;;5114914;28;20055;-61
2023/12/08 03:44:34;;;;;;;7.47;5.28;;;;;;;;;;5122877;27;20054;-61
2023/12/08 03:47:00;;;;;;;7.70;5.57;;;;;;;;;;5114109;27;20539;-62
2023/12/08 03:49:27;;;;;;;7.03;5.85;;;;;;;;;;5114078;27;20051;-61
2023/12/08 03:51:55;;;;;;;6.85;5.65;;;;;;;;;;5114519;27;20056;-62
2023/12/08 03:54:22;;;;;;;7.05;5.60;;;;;;;;;;5120642;27;20043;-62
2023/12/08 03:56:49;;;;;;;10.40;6.03;;;;;;;;;;5114285;27;20043;-61
2023/12/08 03:59:16;;;;;;;7.22;5.75;;;;;;;;;;5133839;27;20435;-62
2023/12/08 04:01:43;;;;;;;7.18;5.70;;;;;;;;;;5113582;27;20052;-61
2023/12/08 04:04:11;;;;;;;7.88;5.55;;;;;;;;;;5124008;27;20722;-62
2023/12/08 04:06:37;;;;;;;7.40;5.82;;;;;;;;;;5113585;27;20055;-61
2023/12/08 04:09:06;;;;;;;8.25;5.63;;;;;;;;;;5114183;27;20048;-62
2023/12/08 04:11:33;;;;;;;7.53;6.35;;;;;;;;;;5126702;27;20480;-61
2023/12/08 04:13:59;;;;;;;9.13;6.45;;;;;;;;;;5133486;27;20051;-61
2023/12/08 04:16:26;;;;;;;8.98;7.03;;;;;;;;;;5119196;27;20059;-62
2023/12/08 04:18:53;;;;;;;10.57;7.50;;;;;;;;;;5121615;27;20058;-62
2023/12/08 04:21:20;;;;;;;9.75;7.45;;;;;;;;;;5134459;27;20054;-63
2023/12/08 04:23:47;;;;;;;9.30;7.47;;;;;;;;;;5133263;27;20067;-62
2023/12/08 04:26:16;;;;;;;9.25;7.57;;;;;;;;;;5121445;27;20135;-62
2023/12/08 04:28:43;;;;;;;;;;;;;;;;;;5113930;27;20052;-63
2023/12/08 04:31:10;;;;;;;11.45;7.75;;;;;;;;;;5129385;27;20295;-62
2023/12/08 04:33:35;;;;;;;11.13;8.27;;;;;;;;;;5128563;27;20047;-62
2023/12/08 04:36:02;;;;;;;12.55;8.43;;;;;;;;;;5133179;27;20155;-62
2023/12/08 04:38:29;;;;;;;12.10;8.52;;;;;;;;;;5132264;27;20050;-62
2023/12/08 04:40:56;;;;;;;9.82;8.13;;;;;;;;;;5127829;27;20043;-63
2023/12/08 04:43:24;;;;;;;10.55;8.73;;;;;;;;;;5112957;27;20400;-62
2023/12/08 04:45:51;;;;;;;14.38;9.60;;;;;;;;;;5110380;27;20058;-62
2023/12/08 04:48:18;;;;;;;11.00;7.88;;;;;;;;;;5108688;27;20058;-61
2023/12/08 04:50:45;;;;;;;11.90;8.82;;;;;;;;;;5108034;27;20051;-61
2023/12/08 04:53:12;;;;;;;11.98;8.85;;;;;;;;;;5111369;27;20495;-62
2023/12/08 04:55:39;;;;;;;13.75;8.73;;;;;;;;;;5110399;27;20054;-62
2023/12/08 04:58:06;;;;;;;11.45;8.65;;;;;;;;;;5114237;27;20052;-62
2023/12/08 05:00:34;;;;;;;12.43;9.35;;;;;;;;;;5108177;27;20066;-62
2023/12/08 05:03:01;;;;;;;12.05;9.38;;;;;;;;;;5106149;27;20054;-62
2023/12/08 05:05:28;;;;;;;11.18;8.18;;;;;;;;;;5111266;27;20055;-63
2023/12/08 05:07:54;;;;;;;13.23;9.73;;;;;;;;;;5110289;27;20051;-62
2023/12/08 05:10:21;;;;;;;11.27;9.15;;;;;;;;;;5109480;27;20158;-62
2023/12/08 05:12:48;;;;;;;10.30;8.75;;;;;;;;;;5115305;27;20052;-62
2023/12/08 05:15:15;;;;;;;11.50;8.38;;;;;;;;;;5106415;27;20043;-62
2023/12/08 05:17:44;;;;;;;11.65;9.40;;;;;;;;;;5111904;27;20055;-62
2023/12/08 05:20:12;;;;;;;12.75;9.43;;;;;;;;;;5108814;27;20058;-63
2023/12/08 05:22:39;;;;;;;11.85;9.52;;;;;;;;;;5123972;27;20058;-62
2023/12/08 05:25:08;;;;;;;13.38;9.52;;;;;;;;;;5116279;27;20051;-62
2023/12/08 05:27:34;;;;;;;12.27;9.25;;;;;;;;;;5115966;27;20056;-62
2023/12/08 05:30:02;;;;;;;11.68;9.60;;;;;;;;;;5112743;28;20058;-62
2023/12/08 05:32:29;;;;;;;13.57;9.98;;;;;;;;;;5121242;27;20055;-62
2023/12/08 05:34:57;;;;;;;12.82;9.65;;;;;;;;;;5116477;27;20052;-62
2023/12/08 05:37:24;;;;;;;13.10;10.00;;;;;;;;;;5124102;27;20058;-62
2023/12/08 05:39:50;;;;;;;13.80;9.60;;;;;;;;;;5120513;27;20047;-61
2023/12/08 05:42:17;;;;;;;13.60;10.20;;;;;;;;;;5115991;27;20052;-62
2023/12/08 05:44:44;;;;;;;11.98;9.75;;;;;;;;;;5111870;28;20058;-62
2023/12/08 05:47:11;;;;;;;13.35;10.18;;;;;;;;;;5123655;27;20051;-62
2023/12/08 05:49:38;;;;;;;14.07;10.60;;;;;;;;;;5132549;27;20066;-62
2023/12/08 05:52:06;;;;;;;16.50;11.30;;;;;;;;;;5132744;27;20055;-62
2023/12/08 05:54:33;;;;;;;14.30;10.02;;;;;;;;;;5132885;27;20055;-62
2023/12/08 05:56:59;;;;;;;13.60;10.27;;;;;;;;;;5132640;27;20058;-62
2023/12/08 05:59:26;;;;;;;12.00;9.57;;;;;;;;;;5120304;27;20055;-62
2023/12/08 06:01:53;;;;;;;12.85;9.52;;;;;;;;;;5119189;28;20058;-61
2023/12/08 06:04:20;;;;;;;13.43;10.30;;;;;;;;;;5129530;27;20062;-62
2023/12/08 06:06:47;;;;;;;13.77;10.13;;;;;;;;;;5132407;27;20082;-62
2023/12/08 06:09:17;;;;;;;14.00;10.68;;;;;;;;;;5132215;27;20065;-62
2023/12/08 06:11:44;;;;;;;11.60;9.25;;;;;;;;;;5132501;27;20051;-62
2023/12/08 06:14:11;;;;;;;15.00;11.00;;;;;;;;;;5132054;27;20058;-62
2023/12/08 06:16:37;;;;;;;14.82;11.45;;;;;;;;;;5124420;27;20481;-62
2023/12/08 06:19:05;;;;;;;15.13;11.35;;;;;;;;;;5115346;28;20047;-62
2023/12/08 06:21:31;;;;;;;15.15;11.18;;;;;;;;;;5123019;27;20050;-61
2023/12/08 06:23:58;;;;;;;14.20;9.93;;;;;;;;;;5111845;27;20054;-60
2023/12/08 06:26:27;;;;;;;12.15;9.52;;;;;;;;;;5123885;27;20043;-62
2023/12/08 06:28:53;;;;;;;13.52;10.77;;;;;;;;;;5136372;27;20055;-62
2023/12/08 06:31:20;;;;;;;14.98;10.90;;;;;;;;;;5123388;27;20052;-61
2023/12/08 06:33:47;;;;;;;14.38;10.90;;;;;;;;;;5112865;27;20063;-60
2023/12/08 06:36:15;;;;;;;14.75;11.02;;;;;;;;;;5111874;27;20052;-62
2023/12/08 06:38:42;;;;;;;16.05;11.05;;;;;;;;;;5110020;27;20047;-61
2023/12/08 06:41:09;;;;;;;15.27;11.25;;;;;;;;;;5111588;27;20054;-62
2023/12/08 06:43:38;;;;;;;12.40;9.45;;;;;;;;;;5111632;27;20047;-61
2023/12/08 06:46:05;;;;;;;13.15;8.82;;;;;;;;;;5120584;27;20408;-62
2023/12/08 06:48:31;;;;;;;11.48;9.05;;;;;;;;;;5111419;27;20056;-62
2023/12/08 06:50:58;;;;;;;14.02;10.52;;;;;;;;;;5111787;27;20043;-62
2023/12/08 06:53:25;;;;;;;13.35;9.60;;;;;;;;;;5110607;27;20059;-62
2023/12/08 06:55:54;;;;;;;14.35;10.68;;;;;;;;;;5113155;27;20044;-62
2023/12/08 06:58:21;;;;;;;12.80;10.20;;;;;;;;;;5114199;27;20062;-62
2023/12/08 07:00:49;;;;;;;12.77;10.57;;;;;;;;;;5118778;27;20051;-63
2023/12/08 07:03:16;;;;;;;15.18;9.73;;;;;;;;;;5123245;27;20059;-63
2023/12/08 07:05:43;;;;;;;13.30;9.43;;;;;;;;;;5115453;27;20055;-62
2023/12/08 07:08:10;;;;;;;12.55;10.30;;;;;;;;;;5112864;27;20050;-62
2023/12/08 07:10:36;;;;;;;13.52;9.60;;;;;;;;;;5120554;27;20073;-62
2023/12/08 07:13:03;;;;;;;13.30;10.10;;;;;;;;;;5134660;27;20058;-62
2023/12/08 07:15:30;;;;;;;13.73;9.95;;;;;;;;;;5120417;27;20051;-62
2023/12/08 07:17:58;;;;;;;17.50;10.10;;;;;;;;;;5120395;27;20074;-63
2023/12/08 07:20:25;;;;;;;15.10;9.95;;;;;;;;;;5117299;27;20058;-62
2023/12/08 07:22:52;;;;;;;12.98;9.90;;;;;;;;;;5116460;27;20444;-62
2023/12/08 07:25:19;;;;;;;14.60;10.18;;;;;;;;;;5122810;27;20511;-62
2023/12/08 07:27:45;;;;;;;14.30;10.00;;;;;;;;;;5116392;27;20411;-62
2023/12/08 07:30:13;;;;;;;12.18;9.52;;;;;;;;;;5127495;27;20054;-62
2023/12/08 07:32:39;;;;;;;13.05;9.95;;;;;;;;;;5128750;27;20058;-63
2023/12/08 07:35:08;;;;;;;13.85;9.85;;;;;;;;;;5119126;27;20476;-62
2023/12/08 07:37:38;;;;;;;14.43;11.25;;;;;;;;;;5115119;28;20051;-62
2023/12/08 07:40:06;;;;;;;12.93;10.48;;;;;;;;;;5127453;27;20047;-62
2023/12/08 07:42:32;;;;;;;15.68;11.50;;;;;;;;;;5120071;27;20067;-62
2023/12/08 07:44:59;;;;;;;14.27;10.45;;;;;;;;;;5130945;27;20055;-63
2023/12/08 07:47:27;;;;;;;13.85;10.15;;;;;;;;;;5116378;27;20408;-63
2023/12/08 07:49:53;;;;;;;13.02;10.65;;;;;;;;;;5129136;27;20404;-62
2023/12/08 07:52:22;;;;;;;13.90;10.75;;;;;;;;;;5114509;27;20051;-62
2023/12/08 07:54:48;;;;;;;12.52;9.82;;;;;;;;;;5114982;28;20457;-62
2023/12/08 07:57:15;;;;;;;13.38;11.40;;;;;;;;;;5114530;28;20054;-63
2023/12/08 07:59:42;;;;;;;13.55;11.25;;;;;;;;;;5121518;27;20059;-62
2023/12/08 08:02:09;;;;;;;12.13;10.00;;;;;;;;;;5130697;27;20515;-62
2023/12/08 08:04:36;;;;;;;14.02;9.85;;;;;;;;;;5134852;27;20058;-62
2023/12/08 08:07:02;;;;;;;12.93;9.30;;;;;;;;;;5132599;27;20066;-63
2023/12/08 08:09:31;;;;;;;12.43;9.63;;;;;;;;;;5135134;27;20415;-63
2023/12/08 08:11:57;;;;;;;12.32;10.07;;;;;;;;;;5128989;27;20373;-62
2023/12/08 08:14:24;;;;;;;12.55;9.80;;;;;;;;;;5133690;27;20077;-62
2023/12/08 08:16:51;;;;;;;12.63;9.82;;;;;;;;;;5129926;27;20048;-62
2023/12/08 08:19:18;;;;;;;13.70;10.15;;;;;;;;;;5131746;27;20052;-62
2023/12/08 08:21:45;;;;;;;12.43;9.20;;;;;;;;;;5113927;28;20404;-61
2023/12/08 08:24:12;;;;;;;12.80;10.45;;;;;;;;;;5117028;27;20466;-62
2023/12/08 08:26:44;;;;;;;12.68;9.88;;;;;;;;;;5134411;27;20059;-62
2023/12/08 08:29:10;;;;;;;11.65;9.40;;;;;;;;;;5132660;27;20047;-62
2023/12/08 08:31:37;;;;;;;12.65;9.68;;;;;;;;;;5116549;27;20101;-63
2023/12/08 08:34:04;;;;;;;11.43;9.25;;;;;;;;;;5117282;27;20062;-62
2023/12/08 08:36:31;;;;;;;12.70;9.73;;;;;;;;;;5115710;27;20043;-62
2023/12/08 08:38:58;;;;;;;11.05;9.25;;;;;;;;;;5132974;27;20047;-62
2023/12/08 08:41:25;;;;;;;11.70;8.95;;;;;;;;;;5131983;27;20395;-62
2023/12/08 08:43:53;;;;;;;11.65;9.20;;;;;;;;;;5126454;27;20070;-62
2023/12/08 08:46:20;;;;;;;14.10;10.80;;;;;;;;;;5115751;27;20371;-62
2023/12/08 08:48:47;;;;;;;12.23;10.20;;;;;;;;;;5127070;27;20051;-62
2023/12/08 08:51:16;;;;;;;12.30;10.40;;;;;;;;;;5130991;27;20058;-62
2023/12/08 08:53:43;;;;;;;13.35;10.40;;;;;;;;;;5132380;27;20497;-62
2023/12/08 08:56:09;;;;;;;13.48;10.75;;;;;;;;;;5113202;28;20043;-62
2023/12/08 08:58:36;;;;;;;12.88;10.88;;;;;;;;;;5123573;27;20403;-62
2023/12/08 09:01:05;;;;;;;13.55;10.73;;;;;;;;;;5125891;27;20051;-62
2023/12/08 09:03:32;;;;;;;13.15;11.15;;;;;;;;;;5120101;27;20059;-62
2023/12/08 09:05:59;;;;;;;14.65;12.18;;;;;;;;;;5131144;27;20062;-62
2023/12/08 09:08:26;;;;;;;14.20;11.48;;;;;;;;;;5113789;27;20055;-62
2023/12/08 09:10:53;;;;;;;14.98;11.90;;;;;;;;;;5131878;27;20059;-62
2023/12/08 09:13:20;;;;;;;16.15;12.25;;;;;;;;;;5124200;27;20503;-62
2023/12/08 09:15:47;;;;;;;14.25;11.75;;;;;;;;;;5117485;27;20054;-63
2023/12/08 09:18:15;;;;;;;16.00;11.20;;;;;;;;;;5133150;27;20068;-62
2023/12/08 09:20:43;;;;;;;15.38;12.35;;;;;;;;;;5132068;27;20069;-62
2023/12/08 09:23:11;;;;;;;14.23;10.98;;;;;;;;;;5122827;27;20046;-63
2023/12/08 09:25:38;;;;;;;14.23;11.38;;;;;;;;;;5132059;27;20395;-62
2023/12/08 09:28:05;;;;;;;14.98;11.45;;;;;;;;;;5113397;28;20070;-62
2023/12/08 09:30:32;;;;;;;16.13;12.15;;;;;;;;;;5120926;27;20043;-62
2023/12/08 09:32:59;;;;;;;17.05;12.77;;;;;;;;;;5130372;27;20051;-62
2023/12/08 09:35:27;;;;;;;17.65;13.02;;;;;;;;;;5124257;27;20055;-62
2023/12/08 09:37:54;;;;;;;17.55;12.88;;;;;;;;;;5130639;27;20047;-62
2023/12/08 09:40:23;;;;;;;15.45;12.52;;;;;;;;;;5127271;27;20491;-62
2023/12/08 09:42:52;;;;;;;17.33;13.88;;;;;;;;;;5108885;27;20047;-62
2023/12/08 09:45:20;;;;;;;16.25;12.50;;;;;;;;;;5131830;27;20062;-62
2023/12/08 09:47:48;;;;;;;15.00;12.77;;;;;;;;;;5120644;27;20483;-62
2023/12/08 09:50:16;;;;;;;16.38;12.55;;;;;;;;;;5132423;27;20062;-62
2023/12/08 09:52:45;;;;;;;15.88;12.70;;;;;;;;;;5133196;27;20058;-62
2023/12/08 09:55:12;;;;;;;19.27;13.50;;;;;;;;;;5124053;27;20044;-62
2023/12/08 09:57:39;;;;;;;16.30;12.30;;;;;;;;;;5114160;27;20493;-62
2023/12/08 10:00:09;;;;;;;14.48;11.30;;;;;;;;;;5120011;27;20055;-62
2023/12/08 10:02:36;;;;;;;15.80;13.07;;;;;;;;;;5132344;27;20050;-62
2023/12/08 10:05:03;;;;;;;17.08;13.15;;;;;;;;;;5127607;28;20079;-62
2023/12/08 10:07:32;;;;;;;17.00;12.25;;;;;;;;;;5129098;28;20126;-62
2023/12/08 10:10:01;;;;;;;14.15;12.18;;;;;;;;;;5112112;28;20051;-62
2023/12/08 10:12:28;;;;;;;15.15;12.13;;;;;;;;;;5111685;28;20051;-62
2023/12/08 10:14:55;;;;;;;16.13;12.63;;;;;;;;;;5127230;28;20495;-62
2023/12/08 10:17:22;;;;;;;14.38;12.30;;;;;;;;;;5114799;28;20054;-62
2023/12/08 10:19:49;;;;;;;14.60;12.15;;;;;;;;;;5121076;28;20047;-62
2023/12/08 10:22:16;;;;;;;12.95;11.38;;;;;;;;;;5132701;28;20059;-62
2023/12/08 10:24:43;;;;;;;13.52;10.57;;;;;;;;;;5129552;28;20047;-62
2023/12/08 10:27:11;;;;;;;15.45;11.88;;;;;;;;;;5111526;28;20078;-62
2023/12/08 10:29:38;;;;;;;15.38;11.27;;;;;;;;;;5123062;28;20051;-62
2023/12/08 10:32:05;;;;;;;14.02;11.45;;;;;;;;;;5128193;28;20104;-61
2023/12/08 10:34:33;;;;;;;18.77;12.75;;;;;;;;;;5123866;27;20046;-62
2023/12/08 10:37:00;;;;;;;13.77;11.93;;;;;;;;;;5125120;28;20043;-62
2023/12/08 10:39:27;;;;;;;13.88;11.10;;;;;;;;;;5131300;28;20051;-62
2023/12/08 10:41:55;;;;;;;14.00;10.95;;;;;;;;;;5122860;28;20047;-62
2023/12/08 10:44:23;;;;;;;15.63;11.75;;;;;;;;;;5130374;28;20051;-62
2023/12/08 10:46:50;;;;;;;12.82;10.73;;;;;;;;;;5118536;28;20059;-62
2023/12/08 10:49:19;;;;;;;13.25;10.30;;;;;;;;;;5116761;28;20417;-62
2023/12/08 10:51:46;;;;;;;11.63;9.88;;;;;;;;;;5115270;28;20051;-62
2023/12/08 10:54:14;;;;;;;13.02;9.43;;;;;;;;;;5130777;27;20415;-62
2023/12/08 10:56:41;;;;;;;12.10;10.52;;;;;;;;;;5132123;28;20058;-62
2023/12/08 10:59:10;;;;;;;11.95;9.93;;;;;;;;;;5125843;28;20472;-62
2023/12/08 11:01:39;;;;;;;12.77;10.95;;;;;;;;;;5122042;27;20051;-63
2023/12/08 11:04:10;;;;;;;11.75;9.35;;;;;;;;;;5128072;28;20066;-63
2023/12/08 11:06:41;;;;;;;12.90;10.18;;;;;;;;;;5129308;28;20051;-62
2023/12/08 11:09:10;;;;;;;11.20;9.38;;;;;;;;;;5131813;27;20047;-62
2023/12/08 11:11:38;;;;;;;13.35;10.30;;;;;;;;;;5133863;27;20495;-62
2023/12/08 11:14:06;;;;;;;12.88;10.70;;;;;;;;;;5122069;27;20055;-62
2023/12/08 11:16:36;;;;;;;12.90;10.63;;;;;;;;;;5132613;27;20058;-63
2023/12/08 11:19:05;;;;;;;10.85;8.77;;;;;;;;;;5131081;27;20043;-62
2023/12/08 11:21:32;;;;;;;10.95;9.30;;;;;;;;;;5114696;27;20061;-62
2023/12/08 11:23:59;;;;;;;11.02;9.10;;;;;;;;;;5130993;27;20380;-62
2023/12/08 11:26:30;;;;;;;11.63;9.90;;;;;;;;;;5129660;27;20059;-62
2023/12/08 11:29:03;;;;;;;11.32;9.25;;;;;;;;;;5125193;27;20062;-62
2023/12/08 11:31:38;;;;;;;12.30;10.00;;;;;;;;;;5133379;27;20415;-61
2023/12/08 11:34:12;;;;;;;13.13;9.90;;;;;;;;;;5133962;27;20062;-62
2023/12/08 11:36:43;;;;;;;12.73;10.15;;;;;;;;;;5119749;27;20411;-62
2023/12/08 11:39:28;;;;;;;11.32;9.48;;;;;;;;;;5130891;27;20062;-62
2023/12/08 11:41:55;;;;;;;10.90;9.20;;;;;;;;;;5118138;27;20047;-61
2023/12/08 11:44:22;;;;;;;11.30;8.82;;;;;;;;;;5114042;27;20055;-61
2023/12/08 11:46:52;;;;;;;12.07;9.55;;;;;;;;;;5127618;27;20055;-61
2023/12/08 11:49:20;;;;;;;12.70;10.02;;;;;;;;;;5133119;27;20411;-62
2023/12/08 11:52:01;;;;;;;13.68;9.70;;;;;;;;;;5126868;27;20051;-62
2023/12/08 11:54:28;;;;;;;13.48;9.40;;;;;;;;;;5126116;27;20403;-62
2023/12/08 11:56:55;;;;;;;12.85;9.82;;;;;;;;;;5122076;27;20052;-62
2023/12/08 11:59:23;;;;;;;13.05;9.27;;;;;;;;;;5122348;27;20047;-63
2023/12/08 12:01:50;;;;;;;12.95;9.73;;;;;;;;;;5120986;27;20066;-63
2023/12/08 12:04:18;;;;;;;12.20;9.13;;;;;;;;;;5129815;27;20055;-63
2023/12/08 12:06:49;;;;;;;14.23;10.95;;;;;;;;;;5120722;27;20059;-62
2023/12/08 12:09:16;;;;;;;13.40;10.52;;;;;;;;;;5121083;27;20051;-62
2023/12/08 12:11:44;;;;;;;13.05;9.60;;;;;;;;;;5121325;27;20488;-63
2023/12/08 12:14:13;;;;;;;11.10;9.60;;;;;;;;;;5127329;27;20051;-62
2023/12/08 12:16:40;;;;;;;14.18;9.60;;;;;;;;;;5124655;27;20051;-62
2023/12/08 12:19:08;;;;;;;13.02;9.02;;;;;;;;;;5113841;28;20058;-62
2023/12/08 12:21:36;;;;;;;12.63;9.18;;;;;;;;;;5114017;28;20460;-62
2023/12/08 12:24:04;;;;;;;11.55;8.70;;;;;;;;;;5117535;27;20047;-62
2023/12/08 12:26:31;;;;;;;11.02;8.55;;;;;;;;;;5113797;28;20051;-62
2023/12/08 12:28:59;;;;;;;10.35;8.77;;;;;;;;;;5114245;28;20051;-62
2023/12/08 12:31:26;;;;;;;10.50;8.75;;;;;;;;;;5124382;27;20051;-62
2023/12/08 12:33:53;;;;;;;12.95;8.70;;;;;;;;;;5134473;27;20061;-62
2023/12/08 12:36:19;;;;;;;11.25;9.77;;;;;;;;;;5132215;27;20058;-62
2023/12/08 12:38:47;;;;;;;11.27;8.90;;;;;;;;;;5132468;27;20053;-62
2023/12/08 12:41:21;;;;;;;21.20;14.85;;;;;;;;;;5133866;27;21213;-62
2023/12/08 12:43:48;;;;;;;12.40;10.00;;;;;;;;;;5128862;27;20054;-65
2023/12/08 12:46:15;;;;;;;12.02;9.10;;;;;;;;;;5118745;27;20051;-65
2023/12/08 12:48:42;;;;;;;13.02;9.15;;;;;;;;;;5132603;27;20047;-66
2023/12/08 12:51:09;;;;;;;19.40;13.45;;;;;;;;;;5114214;27;20055;-65
2023/12/08 12:53:43;;;;;;;16.95;13.25;;;;;;;;;;5114879;27;20047;-65
2023/12/08 12:56:10;;;;;;;15.45;12.63;;;;;;;;;;5115484;27;20051;-65
2023/12/08 12:58:39;;;;;;;14.77;11.77;;;;;;;;;;5123370;27;20056;-66
2023/12/08 13:01:12;;;;;;;19.92;17.20;;;;;;;;;;5112758;28;20055;-65
2023/12/08 13:03:45;;;;;;;16.52;13.55;;;;;;;;;;5120667;27;20047;-65
2023/12/08 13:06:12;;;;;;;11.77;9.00;;;;;;;;;;5112910;28;20058;-66
2023/12/08 13:08:42;;;;;;;11.60;9.05;;;;;;;;;;5112889;28;20050;-66
2023/12/08 13:11:09;;;;;;;11.02;8.02;;;;;;;;;;5112947;28;20052;-65
2023/12/08 13:13:37;;;;;;;13.50;9.27;;;;;;;;;;5112712;28;20058;-65
2023/12/08 13:16:06;;;;;;;11.98;9.00;;;;;;;;;;5112040;28;20051;-65
2023/12/08 13:18:33;;;;;;;12.02;9.68;;;;;;;;;;5111541;28;20511;-65
2023/12/08 13:21:00;;;;;;;11.45;8.85;;;;;;;;;;5113433;27;20055;-65
2023/12/08 13:23:27;;;;;;;10.73;8.55;;;;;;;;;;5112746;28;20473;-65
2023/12/08 13:25:54;;;;;;;11.63;9.02;;;;;;;;;;5111256;28;20051;-66
2023/12/08 13:28:20;;;;;;;12.13;8.77;;;;;;;;;;5112320;28;20047;-66
2023/12/08 13:30:47;;;;;;;17.95;8.63;;;;;;;;;;5112662;28;20429;-66
2023/12/08 13:33:15;;;;;;;10.85;8.07;;;;;;;;;;5112412;28;20051;-66
2023/12/08 13:35:42;;;;;;;10.57;7.80;;;;;;;;;;5112767;28;20054;-66
2023/12/08 13:38:10;;;;;;;11.52;8.95;;;;;;;;;;5113409;28;20401;-66
2023/12/08 13:40:36;;;;;;;10.00;8.38;;;;;;;;;;5112450;28;20055;-65
2023/12/08 13:43:03;;;;;;;10.98;9.10;;;;;;;;;;5112679;28;20400;-66
2023/12/08 13:45:30;;;;;;;12.38;7.85;;;;;;;;;;5112612;28;20066;-66
2023/12/08 13:47:57;;;;;;;11.15;8.57;;;;;;;;;;5116332;27;20051;-66
2023/12/08 13:50:26;;;;;;;11.05;8.38;;;;;;;;;;5119314;27;20056;-65
2023/12/08 13:52:53;;;;;;;10.88;7.93;;;;;;;;;;5123260;27;20051;-63
2023/12/08 13:55:20;;;;;;;10.95;7.57;;;;;;;;;;5122486;27;20047;-64
2023/12/08 13:57:47;;;;;;;11.52;8.02;;;;;;;;;;5120613;27;20062;-66
2023/12/08 14:00:14;;;;;;;9.82;7.65;;;;;;;;;;5132571;27;20511;-64
2023/12/08 14:02:41;;;;;;;10.10;7.57;;;;;;;;;;5130565;27;20062;-64
2023/12/08 14:05:10;;;;;;;12.15;8.20;;;;;;;;;;5119329;28;20484;-64
2023/12/08 14:07:38;;;;;;;11.73;8.25;;;;;;;;;;5125641;28;20061;-65
2023/12/08 14:10:07;;;;;;;12.38;8.05;;;;;;;;;;5113871;28;20047;-65
2023/12/08 14:12:35;;;;;;;10.18;7.90;;;;;;;;;;5124756;28;20048;-64
2023/12/08 14:15:02;;;;;;;10.27;8.10;;;;;;;;;;5111957;28;20048;-64
2023/12/08 14:17:29;;;;;;;12.00;8.05;;;;;;;;;;5109754;28;20463;-64
2023/12/08 14:19:56;;;;;;;14.38;8.73;;;;;;;;;;5111666;28;20492;-64
2023/12/08 14:22:22;;;;;;;11.10;8.00;;;;;;;;;;5122472;28;20468;-64
2023/12/08 14:24:51;;;;;;;11.60;8.20;;;;;;;;;;5115751;28;20396;-65
2023/12/08 14:27:18;;;;;;;15.63;9.02;;;;;;;;;;5124350;28;20059;-64
2023/12/08 14:29:45;;;;;;;13.45;10.10;;;;;;;;;;5114819;28;20048;-64
2023/12/08 14:32:13;;;;;;;14.02;8.90;;;;;;;;;;5132722;28;20070;-64